createdAt,value
2019-01-30T00:00:46.354Z,18.24
2019-01-30T00:01:46.358Z,18.25
2019-01-30T00:02:46.272Z,18.23
2019-01-30T00:03:46.321Z,18.21
2019-01-30T00:04:46.173Z,18.23
2019-01-30T00:05:46.172Z,18.2
2019-01-30T00:06:45.895Z,18.22
2019-01-30T00:07:46.076Z,18.2
2019-01-30T00:08:46.335Z,18.19
2019-01-30T00:09:45.918Z,18.19
2019-01-30T00:10:46.154Z,18.17
2019-01-30T00:11:46.447Z,18.17
2019-01-30T00:12:46.066Z,18.15
2019-01-30T00:13:46.331Z,18.15
2019-01-30T00:14:45.937Z,18.15
2019-01-30T00:15:57.024Z,18.17
2019-01-30T00:16:46.060Z,18.14
2019-01-30T00:17:46.278Z,18.15
2019-01-30T00:18:46.021Z,18.15
2019-01-30T00:19:46.294Z,18.11
2019-01-30T00:20:46.069Z,18.11
2019-01-30T00:21:46.016Z,18.14
2019-01-30T00:22:46.000Z,18.12
2019-01-30T00:23:46.090Z,18.09
2019-01-30T00:24:46.038Z,18.11
2019-01-30T00:25:46.135Z,18.11
2019-01-30T00:26:46.021Z,18.1
2019-01-30T00:27:46.254Z,18.09
2019-01-30T00:28:46.259Z,18.09
2019-01-30T00:29:45.979Z,18.06
2019-01-30T00:30:46.085Z,18.09
2019-01-30T00:31:46.244Z,18.07
2019-01-30T00:32:45.996Z,18.06
2019-01-30T00:33:46.132Z,18.05
2019-01-30T00:34:46.111Z,18.06
2019-01-30T00:35:46.930Z,18.04
2019-01-30T00:36:45.984Z,18.05
2019-01-30T00:37:46.425Z,18.04
2019-01-30T00:38:47.758Z,18.03
2019-01-30T00:39:46.339Z,18.03
2019-01-30T00:40:46.607Z,18.03
2019-01-30T00:41:46.241Z,18
2019-01-30T00:42:46.041Z,18
2019-01-30T00:43:45.997Z,18
2019-01-30T00:44:46.154Z,18
2019-01-30T00:45:46.672Z,17.99
2019-01-30T00:46:46.491Z,17.98
2019-01-30T00:47:47.986Z,17.99
2019-01-30T00:48:46.483Z,17.98
2019-01-30T00:49:46.306Z,17.96
2019-01-30T00:50:47.993Z,17.97
2019-01-30T00:51:46.079Z,17.97
2019-01-30T00:52:46.061Z,17.97
2019-01-30T00:53:46.318Z,17.95
2019-01-30T00:54:46.225Z,17.94
2019-01-30T00:55:46.052Z,17.95
2019-01-30T00:56:46.240Z,17.93
2019-01-30T00:57:46.158Z,17.93
2019-01-30T00:58:46.247Z,17.93
2019-01-30T00:59:46.672Z,17.93
2019-01-30T01:00:46.200Z,17.92
2019-01-30T01:01:46.094Z,17.92
2019-01-30T01:02:46.132Z,17.9
2019-01-30T01:03:45.970Z,17.9
2019-01-30T01:04:46.402Z,17.91
2019-01-30T01:05:45.946Z,17.91
2019-01-30T01:06:46.090Z,17.89
2019-01-30T01:07:46.230Z,17.88
2019-01-30T01:08:47.851Z,17.89
2019-01-30T01:09:46.016Z,17.88
2019-01-30T01:10:46.097Z,17.88
2019-01-30T01:11:46.264Z,17.88
2019-01-30T01:12:46.461Z,17.85
2019-01-30T01:13:46.247Z,17.88
2019-01-30T01:14:46.184Z,17.87
2019-01-30T01:15:46.136Z,17.83
2019-01-30T01:16:46.402Z,17.88
2019-01-30T01:17:45.957Z,17.84
2019-01-30T01:18:46.165Z,17.83
2019-01-30T01:19:46.112Z,17.83
2019-01-30T01:20:46.327Z,17.82
2019-01-30T01:21:46.084Z,17.82
2019-01-30T01:22:45.937Z,17.82
2019-01-30T01:23:46.145Z,17.82
2019-01-30T01:24:46.444Z,17.8
2019-01-30T01:25:46.258Z,17.8
2019-01-30T01:26:46.369Z,17.79
2019-01-30T01:27:46.190Z,17.81
2019-01-30T01:28:46.011Z,17.8
2019-01-30T01:29:46.384Z,17.79
2019-01-30T01:30:46.806Z,17.79
2019-01-30T01:31:46.408Z,17.77
2019-01-30T01:32:47.099Z,17.78
2019-01-30T01:33:46.524Z,17.78
2019-01-30T01:34:46.025Z,17.76
2019-01-30T01:35:46.984Z,17.75
2019-01-30T01:36:46.230Z,17.76
2019-01-30T01:37:46.053Z,17.76
2019-01-30T01:38:46.438Z,17.74
2019-01-30T01:39:46.872Z,17.74
2019-01-30T01:40:46.099Z,17.74
2019-01-30T01:41:46.073Z,17.74
2019-01-30T01:42:47.814Z,17.73
2019-01-30T01:43:46.205Z,17.75
2019-01-30T01:44:46.809Z,17.73
2019-01-30T01:45:46.210Z,17.73
2019-01-30T01:46:46.198Z,17.72
2019-01-30T01:47:46.725Z,17.73
2019-01-30T01:48:46.526Z,17.72
2019-01-30T01:49:46.702Z,17.72
2019-01-30T01:50:45.955Z,17.69
2019-01-30T01:51:46.198Z,17.69
2019-01-30T01:52:45.840Z,17.7
2019-01-30T01:53:46.087Z,17.68
2019-01-30T01:54:46.000Z,17.69
2019-01-30T01:55:45.906Z,17.68
2019-01-30T01:56:45.968Z,17.67
2019-01-30T01:57:46.388Z,17.67
2019-01-30T01:58:46.002Z,17.66
2019-01-30T01:59:46.443Z,17.68
2019-01-30T02:00:46.007Z,17.67
2019-01-30T02:01:45.957Z,17.67
2019-01-30T02:02:45.910Z,17.66
2019-01-30T02:03:46.191Z,17.66
2019-01-30T02:04:45.991Z,17.65
2019-01-30T02:05:46.031Z,17.66
2019-01-30T02:06:46.057Z,17.64
2019-01-30T02:07:45.859Z,17.64
2019-01-30T02:08:46.086Z,17.63
2019-01-30T02:09:46.066Z,17.64
2019-01-30T02:10:45.834Z,17.64
2019-01-30T02:11:46.058Z,17.63
2019-01-30T02:12:46.181Z,17.63
2019-01-30T02:13:46.713Z,17.63
2019-01-30T02:14:45.754Z,17.63
2019-01-30T02:15:46.303Z,17.59
2019-01-30T02:16:46.268Z,17.61
2019-01-30T02:17:46.145Z,17.59
2019-01-30T02:18:46.638Z,17.59
2019-01-30T02:19:46.747Z,17.58
2019-01-30T02:20:46.438Z,17.58
2019-01-30T02:21:46.254Z,17.55
2019-01-30T02:22:46.096Z,17.56
2019-01-30T02:23:45.824Z,17.6
2019-01-30T02:24:45.963Z,17.55
2019-01-30T02:25:46.112Z,17.58
2019-01-30T02:26:46.082Z,17.58
2019-01-30T02:27:46.162Z,17.56
2019-01-30T02:28:46.597Z,17.55
2019-01-30T02:29:46.406Z,17.54
2019-01-30T02:30:48.112Z,17.52
2019-01-30T02:31:48.043Z,17.54
2019-01-30T02:32:45.786Z,17.53
2019-01-30T02:33:45.900Z,17.53
2019-01-30T02:34:46.200Z,17.55
2019-01-30T02:35:46.309Z,17.52
2019-01-30T02:36:46.018Z,17.54
2019-01-30T02:37:45.773Z,17.52
2019-01-30T02:38:45.963Z,17.51
2019-01-30T02:39:46.222Z,17.53
2019-01-30T02:40:46.033Z,17.52
2019-01-30T02:41:46.237Z,17.49
2019-01-30T02:42:45.862Z,17.52
2019-01-30T02:43:45.954Z,17.5
2019-01-30T02:44:46.212Z,17.49
2019-01-30T02:45:46.440Z,17.5
2019-01-30T02:46:45.906Z,17.5
2019-01-30T02:47:46.331Z,17.5
2019-01-30T02:48:46.176Z,17.51
2019-01-30T02:49:46.031Z,17.48
2019-01-30T02:50:46.379Z,17.48
2019-01-30T02:51:45.836Z,17.5
2019-01-30T02:52:46.272Z,17.48
2019-01-30T02:53:46.129Z,17.47
2019-01-30T02:54:46.077Z,17.46
2019-01-30T02:55:47.016Z,17.47
2019-01-30T02:56:46.396Z,17.47
2019-01-30T02:57:46.198Z,17.46
2019-01-30T02:58:46.150Z,17.46
2019-01-30T02:59:46.241Z,17.47
2019-01-30T03:00:46.231Z,17.46
2019-01-30T03:01:46.238Z,17.45
2019-01-30T03:02:45.863Z,17.44
2019-01-30T03:03:45.872Z,17.45
2019-01-30T03:04:46.312Z,17.43
2019-01-30T03:05:46.164Z,17.45
2019-01-30T03:06:46.030Z,17.43
2019-01-30T03:07:46.362Z,17.43
2019-01-30T03:08:46.162Z,17.45
2019-01-30T03:09:46.058Z,17.41
2019-01-30T03:10:46.222Z,17.43
2019-01-30T03:11:46.311Z,17.41
2019-01-30T03:12:46.309Z,17.4
2019-01-30T03:13:46.416Z,17.4
2019-01-30T03:14:45.900Z,17.39
2019-01-30T03:15:46.164Z,17.4
2019-01-30T03:16:46.302Z,17.4
2019-01-30T03:17:45.932Z,17.4
2019-01-30T03:18:46.052Z,17.38
2019-01-30T03:19:45.933Z,17.37
2019-01-30T03:20:45.943Z,17.36
2019-01-30T03:21:46.412Z,17.38
2019-01-30T03:22:45.936Z,17.37
2019-01-30T03:23:46.487Z,17.39
2019-01-30T03:24:46.108Z,17.37
2019-01-30T03:25:46.194Z,17.37
2019-01-30T03:26:46.657Z,17.37
2019-01-30T03:27:46.343Z,17.36
2019-01-30T03:28:46.121Z,17.35
2019-01-30T03:29:46.029Z,17.34
2019-01-30T03:30:46.036Z,17.35
2019-01-30T03:31:46.034Z,17.34
2019-01-30T03:32:46.422Z,17.35
2019-01-30T03:33:46.168Z,17.37
2019-01-30T03:34:46.137Z,17.33
2019-01-30T03:35:46.076Z,17.33
2019-01-30T03:36:45.878Z,17.36
2019-01-30T03:37:46.256Z,17.33
2019-01-30T03:38:46.089Z,17.34
2019-01-30T03:39:45.943Z,17.32
2019-01-30T03:40:46.041Z,17.33
2019-01-30T03:41:46.036Z,17.31
2019-01-30T03:42:45.950Z,17.32
2019-01-30T03:43:46.446Z,17.32
2019-01-30T03:44:46.244Z,17.32
2019-01-30T03:45:45.979Z,17.32
2019-01-30T03:46:46.097Z,17.32
2019-01-30T03:47:45.787Z,17.31
2019-01-30T03:48:46.119Z,17.31
2019-01-30T03:49:46.045Z,17.29
2019-01-30T03:50:46.360Z,17.31
2019-01-30T03:51:46.011Z,17.3
2019-01-30T03:52:45.866Z,17.3
2019-01-30T03:53:46.138Z,17.29
2019-01-30T03:54:46.028Z,17.28
2019-01-30T03:55:46.409Z,17.29
2019-01-30T03:56:46.110Z,17.29
2019-01-30T03:57:46.026Z,17.28
2019-01-30T03:58:47.758Z,17.26
2019-01-30T03:59:46.287Z,17.26
2019-01-30T04:00:46.638Z,17.25
2019-01-30T04:01:47.778Z,17.28
2019-01-30T04:02:46.480Z,17.25
2019-01-30T04:03:47.941Z,17.28
2019-01-30T04:04:46.991Z,17.25
2019-01-30T04:05:46.016Z,17.25
2019-01-30T04:06:46.492Z,17.25
2019-01-30T04:07:46.289Z,17.24
2019-01-30T04:08:46.434Z,17.23
2019-01-30T04:09:47.721Z,17.23
2019-01-30T04:10:46.700Z,17.23
2019-01-30T04:11:46.322Z,17.25
2019-01-30T04:12:46.446Z,17.23
2019-01-30T04:13:46.226Z,17.22
2019-01-30T04:14:46.079Z,17.24
2019-01-30T04:15:46.232Z,17.22
2019-01-30T04:16:46.443Z,17.23
2019-01-30T04:17:46.575Z,17.21
2019-01-30T04:18:46.170Z,17.21
2019-01-30T04:19:46.007Z,17.21
2019-01-30T04:20:46.143Z,17.19
2019-01-30T04:21:45.829Z,17.21
2019-01-30T04:22:46.314Z,17.21
2019-01-30T04:23:46.004Z,17.19
2019-01-30T04:24:46.325Z,17.21
2019-01-30T04:25:46.318Z,17.2
2019-01-30T04:26:46.422Z,17.21
2019-01-30T04:27:46.560Z,17.19
2019-01-30T04:28:46.429Z,17.19
2019-01-30T04:29:46.243Z,17.19
2019-01-30T04:30:46.103Z,17.19
2019-01-30T04:31:46.156Z,17.18
2019-01-30T04:32:46.261Z,17.18
2019-01-30T04:33:46.994Z,17.18
2019-01-30T04:34:46.069Z,17.19
2019-01-30T04:35:45.871Z,17.18
2019-01-30T04:36:46.028Z,17.17
2019-01-30T04:37:46.145Z,17.17
2019-01-30T04:38:46.513Z,17.16
2019-01-30T04:39:46.207Z,17.18
2019-01-30T04:40:46.196Z,17.18
2019-01-30T04:41:45.874Z,17.16
2019-01-30T04:42:46.444Z,17.15
2019-01-30T04:43:46.251Z,17.16
2019-01-30T04:44:45.959Z,17.15
2019-01-30T04:45:46.245Z,17.16
2019-01-30T04:46:46.323Z,17.15
2019-01-30T04:47:45.920Z,17.16
2019-01-30T04:48:46.240Z,17.16
2019-01-30T04:49:46.181Z,17.16
2019-01-30T04:50:46.403Z,17.17
2019-01-30T04:51:46.158Z,17.17
2019-01-30T04:52:45.804Z,17.16
2019-01-30T04:53:46.211Z,17.18
2019-01-30T04:54:46.020Z,17.18
2019-01-30T04:55:45.940Z,17.18
2019-01-30T04:56:45.953Z,17.18
2019-01-30T04:57:46.396Z,17.19
2019-01-30T04:58:45.809Z,17.19
2019-01-30T04:59:46.658Z,17.21
2019-01-30T05:00:46.170Z,17.22
2019-01-30T05:01:50.324Z,17.23
2019-01-30T05:02:46.163Z,17.23
2019-01-30T05:03:46.272Z,17.22
2019-01-30T05:04:47.365Z,17.24
2019-01-30T05:05:46.314Z,17.24
2019-01-30T05:06:46.312Z,17.26
2019-01-30T05:07:46.420Z,17.26
2019-01-30T05:08:46.083Z,17.3
2019-01-30T05:09:46.177Z,17.32
2019-01-30T05:10:45.987Z,17.32
2019-01-30T05:11:45.840Z,17.32
2019-01-30T05:12:46.659Z,17.34
2019-01-30T05:13:45.928Z,17.35
2019-01-30T05:14:45.766Z,17.37
2019-01-30T05:15:45.872Z,17.39
2019-01-30T05:16:46.161Z,17.4
2019-01-30T05:17:45.808Z,17.4
2019-01-30T05:18:45.727Z,17.45
2019-01-30T05:19:45.980Z,17.44
2019-01-30T05:20:45.763Z,17.45
2019-01-30T05:21:46.326Z,17.46
2019-01-30T05:22:45.762Z,17.48
2019-01-30T05:23:45.900Z,17.48
2019-01-30T05:24:46.077Z,17.5
2019-01-30T05:25:46.060Z,17.51
2019-01-30T05:26:45.732Z,17.52
2019-01-30T05:27:45.999Z,17.54
2019-01-30T05:28:45.805Z,17.56
2019-01-30T05:29:45.941Z,17.59
2019-01-30T05:30:45.785Z,17.59
2019-01-30T05:31:45.863Z,17.62
2019-01-30T05:32:45.974Z,17.61
2019-01-30T05:33:47.919Z,17.63
2019-01-30T05:34:45.809Z,17.65
2019-01-30T05:35:46.309Z,17.65
2019-01-30T05:36:46.203Z,17.66
2019-01-30T05:37:46.062Z,17.69
2019-01-30T05:38:45.813Z,17.7
2019-01-30T05:39:46.736Z,17.7
2019-01-30T05:40:46.544Z,17.74
2019-01-30T05:41:46.187Z,17.72
2019-01-30T05:42:45.976Z,17.75
2019-01-30T05:43:46.060Z,17.77
2019-01-30T05:44:46.009Z,17.79
2019-01-30T05:45:45.988Z,17.79
2019-01-30T05:46:45.825Z,17.81
2019-01-30T05:47:46.279Z,17.8
2019-01-30T05:48:45.695Z,17.82
2019-01-30T05:49:47.796Z,17.83
2019-01-30T05:50:46.317Z,17.85
2019-01-30T05:51:45.764Z,17.87
2019-01-30T05:52:46.333Z,17.89
2019-01-30T05:53:46.454Z,17.88
2019-01-30T05:54:46.046Z,17.9
2019-01-30T05:55:46.010Z,17.89
2019-01-30T05:56:46.358Z,17.92
2019-01-30T05:57:47.474Z,17.94
2019-01-30T05:58:46.001Z,17.95
2019-01-30T05:59:46.063Z,17.95
2019-01-30T06:00:46.059Z,17.95
2019-01-30T06:01:46.279Z,17.96
2019-01-30T06:02:45.692Z,17.96
2019-01-30T06:03:45.966Z,17.98
2019-01-30T06:04:45.992Z,17.99
2019-01-30T06:05:45.977Z,17.98
2019-01-30T06:06:45.886Z,17.99
2019-01-30T06:07:46.143Z,17.99
2019-01-30T06:08:46.112Z,17.98
2019-01-30T06:09:46.053Z,17.99
2019-01-30T06:10:45.946Z,18.02
2019-01-30T06:11:45.875Z,18.03
2019-01-30T06:12:46.298Z,18.03
2019-01-30T06:13:45.737Z,18.06
2019-01-30T06:14:45.894Z,18.05
2019-01-30T06:15:46.210Z,18.05
2019-01-30T06:16:46.010Z,18.03
2019-01-30T06:17:45.883Z,18.06
2019-01-30T06:18:46.301Z,18.06
2019-01-30T06:19:47.337Z,18.07
2019-01-30T06:20:46.107Z,18.08
2019-01-30T06:21:46.225Z,18.08
2019-01-30T06:22:45.863Z,18.08
2019-01-30T06:23:45.944Z,18.09
2019-01-30T06:24:46.350Z,18.1
2019-01-30T06:25:45.899Z,18.1
2019-01-30T06:26:45.908Z,18.11
2019-01-30T06:27:46.071Z,18.09
2019-01-30T06:28:45.877Z,18.12
2019-01-30T06:29:46.595Z,18.12
2019-01-30T06:30:45.829Z,18.12
2019-01-30T06:31:45.965Z,18.13
2019-01-30T06:32:46.201Z,18.15
2019-01-30T06:33:46.044Z,18.15
2019-01-30T06:34:45.768Z,18.17
2019-01-30T06:35:46.176Z,18.17
2019-01-30T06:36:46.230Z,18.18
2019-01-30T06:37:46.131Z,18.21
2019-01-30T06:38:46.147Z,18.2
2019-01-30T06:39:46.138Z,18.22
2019-01-30T06:40:46.024Z,18.23
2019-01-30T06:41:47.900Z,18.22
2019-01-30T06:42:46.072Z,18.25
2019-01-30T06:43:46.378Z,18.26
2019-01-30T06:44:45.824Z,18.29
2019-01-30T06:45:47.904Z,18.28
2019-01-30T06:46:47.414Z,18.29
2019-01-30T06:47:45.990Z,18.32
2019-01-30T06:48:46.278Z,18.34
2019-01-30T06:49:46.943Z,18.35
2019-01-30T06:50:45.844Z,18.35
2019-01-30T06:51:46.232Z,18.37
2019-01-30T06:52:46.041Z,18.35
2019-01-30T06:53:45.820Z,18.36
2019-01-30T06:54:46.026Z,18.37
2019-01-30T06:55:45.743Z,18.37
2019-01-30T06:56:45.709Z,18.37
2019-01-30T06:57:45.967Z,18.38
2019-01-30T06:58:46.035Z,18.39
2019-01-30T06:59:45.734Z,18.4
2019-01-30T07:00:45.761Z,18.4
2019-01-30T07:01:46.028Z,18.41
2019-01-30T07:02:46.030Z,18.4
2019-01-30T07:03:45.733Z,18.4
2019-01-30T07:04:46.008Z,18.41
2019-01-30T07:05:45.876Z,18.41
2019-01-30T07:06:46.236Z,18.43
2019-01-30T07:07:45.985Z,18.42
2019-01-30T07:08:45.876Z,18.43
2019-01-30T07:09:46.070Z,18.46
2019-01-30T07:10:45.801Z,18.44
2019-01-30T07:11:45.788Z,18.44
2019-01-30T07:12:46.878Z,18.44
2019-01-30T07:13:45.735Z,18.44
2019-01-30T07:14:47.017Z,18.46
2019-01-30T07:15:46.147Z,18.46
2019-01-30T07:16:45.983Z,18.44
2019-01-30T07:17:46.200Z,18.48
2019-01-30T07:18:45.679Z,18.46
2019-01-30T07:19:46.416Z,18.48
2019-01-30T07:20:45.846Z,18.51
2019-01-30T07:21:46.149Z,18.5
2019-01-30T07:22:46.049Z,18.5
2019-01-30T07:23:45.946Z,18.52
2019-01-30T07:24:45.966Z,18.53
2019-01-30T07:25:45.934Z,18.55
2019-01-30T07:26:45.979Z,18.58
2019-01-30T07:27:45.884Z,18.57
2019-01-30T07:28:45.912Z,18.57
2019-01-30T07:29:46.176Z,18.57
2019-01-30T07:30:45.791Z,18.61
2019-01-30T07:31:45.957Z,18.64
2019-01-30T07:32:46.033Z,18.63
2019-01-30T07:33:46.139Z,18.64
2019-01-30T07:34:46.358Z,18.65
2019-01-30T07:35:46.354Z,18.65
2019-01-30T07:36:45.914Z,18.67
2019-01-30T07:37:47.851Z,18.69
2019-01-30T07:38:46.057Z,18.69
2019-01-30T07:39:46.281Z,18.7
2019-01-30T07:40:46.992Z,18.69
2019-01-30T07:41:46.300Z,18.72
2019-01-30T07:42:46.007Z,18.74
2019-01-30T07:43:46.047Z,18.73
2019-01-30T07:44:51.462Z,18.73
2019-01-30T07:45:47.861Z,18.74
2019-01-30T07:46:46.033Z,18.77
2019-01-30T07:47:45.837Z,18.8
2019-01-30T07:48:46.238Z,18.79
2019-01-30T07:49:45.608Z,18.82
2019-01-30T07:50:46.200Z,18.82
2019-01-30T07:51:46.745Z,18.82
2019-01-30T07:52:45.808Z,18.83
2019-01-30T07:53:45.889Z,18.85
2019-01-30T07:54:45.966Z,18.86
2019-01-30T07:55:45.975Z,18.88
2019-01-30T07:56:46.098Z,18.88
2019-01-30T07:57:46.002Z,18.88
2019-01-30T07:58:45.878Z,18.91
2019-01-30T07:59:45.924Z,18.92
2019-01-30T08:00:45.979Z,18.93
2019-01-30T08:01:47.687Z,18.93
2019-01-30T08:02:53.957Z,18.94
2019-01-30T08:03:46.345Z,18.95
2019-01-30T08:04:45.777Z,18.96
2019-01-30T08:05:47.716Z,18.96
2019-01-30T08:06:47.805Z,18.97
2019-01-30T08:07:46.154Z,19.01
2019-01-30T08:08:46.271Z,19.01
2019-01-30T08:09:46.256Z,19.03
2019-01-30T08:10:46.073Z,19.03
2019-01-30T08:11:46.083Z,19.05
2019-01-30T08:12:45.777Z,19.06
2019-01-30T08:13:46.109Z,19.05
2019-01-30T08:14:46.340Z,19.07
2019-01-30T08:15:45.905Z,19.08
2019-01-30T08:16:48.298Z,19.08
2019-01-30T08:17:46.083Z,19.1
2019-01-30T08:18:46.142Z,19.08
2019-01-30T08:19:46.063Z,19.12
2019-01-30T08:20:46.373Z,19.12
2019-01-30T08:21:46.074Z,19.11
2019-01-30T08:22:48.088Z,19.13
2019-01-30T08:23:46.450Z,19.14
2019-01-30T08:24:46.044Z,19.14
2019-01-30T08:25:46.212Z,19.17
2019-01-30T08:26:47.204Z,19.16
2019-01-30T08:27:47.182Z,19.17
2019-01-30T08:28:46.985Z,19.16
2019-01-30T08:29:46.901Z,19.17
2019-01-30T08:30:46.105Z,19.18
2019-01-30T08:31:46.574Z,19.21
2019-01-30T08:32:46.661Z,19.21
2019-01-30T08:33:45.870Z,19.2
2019-01-30T08:34:45.697Z,19.21
2019-01-30T08:35:46.048Z,19.24
2019-01-30T08:36:45.793Z,19.23
2019-01-30T08:37:46.282Z,19.23
2019-01-30T08:38:45.859Z,19.24
2019-01-30T08:39:45.799Z,19.26
2019-01-30T08:40:45.753Z,19.26
2019-01-30T08:41:45.905Z,19.27
2019-01-30T08:42:45.816Z,19.27
2019-01-30T08:43:45.813Z,19.28
2019-01-30T08:44:47.610Z,19.27
2019-01-30T08:45:45.796Z,19.31
2019-01-30T08:46:46.023Z,19.29
2019-01-30T08:47:46.227Z,19.29
2019-01-30T08:48:45.715Z,19.3
2019-01-30T08:49:45.813Z,19.31
2019-01-30T08:50:45.628Z,19.31
2019-01-30T08:51:45.811Z,19.31
2019-01-30T08:52:46.844Z,19.31
2019-01-30T08:53:45.744Z,19.3
2019-01-30T08:54:46.716Z,19.3
2019-01-30T08:55:46.119Z,19.29
2019-01-30T08:56:53.525Z,19.29
2019-01-30T08:57:45.826Z,19.3
2019-01-30T08:58:46.093Z,19.3
2019-01-30T08:59:45.673Z,19.28
2019-01-30T09:00:46.393Z,19.3
2019-01-30T09:01:46.168Z,19.31
2019-01-30T09:02:45.746Z,19.31
2019-01-30T09:03:46.451Z,19.31
2019-01-30T09:04:45.873Z,19.32
2019-01-30T09:05:45.857Z,19.32
2019-01-30T09:06:45.985Z,19.33
2019-01-30T09:07:46.074Z,19.35
2019-01-30T09:08:46.218Z,19.33
2019-01-30T09:09:45.881Z,19.36
2019-01-30T09:10:45.780Z,19.36
2019-01-30T09:11:46.021Z,19.37
2019-01-30T09:12:46.402Z,19.38
2019-01-30T09:13:45.814Z,19.38
2019-01-30T09:14:45.810Z,19.4
2019-01-30T09:15:45.734Z,19.38
2019-01-30T09:16:45.874Z,19.38
2019-01-30T09:17:47.491Z,19.39
2019-01-30T09:18:45.653Z,19.4
2019-01-30T09:19:46.081Z,19.38
2019-01-30T09:20:45.876Z,19.41
2019-01-30T09:21:46.092Z,19.4
2019-01-30T09:22:46.008Z,19.41
2019-01-30T09:23:45.764Z,19.42
2019-01-30T09:24:46.263Z,19.42
2019-01-30T09:25:46.226Z,19.4
2019-01-30T09:26:45.911Z,19.4
2019-01-30T09:27:46.119Z,19.41
2019-01-30T09:28:45.810Z,19.41
2019-01-30T09:29:45.729Z,19.4
2019-01-30T09:30:45.743Z,19.4
2019-01-30T09:31:46.460Z,19.39
2019-01-30T09:32:45.852Z,19.39
2019-01-30T09:33:46.078Z,19.4
2019-01-30T09:34:45.906Z,19.4
2019-01-30T09:35:46.140Z,19.39
2019-01-30T09:36:46.151Z,19.4
2019-01-30T09:37:46.091Z,19.4
2019-01-30T09:38:46.809Z,19.39
2019-01-30T09:39:50.992Z,19.42
2019-01-30T09:40:46.419Z,19.39
2019-01-30T09:41:46.119Z,19.36
2019-01-30T09:42:46.037Z,19.41
2019-01-30T09:43:46.088Z,19.4
2019-01-30T09:44:46.059Z,19.39
2019-01-30T09:45:46.855Z,19.4
2019-01-30T09:46:46.156Z,19.39
2019-01-30T09:47:46.039Z,19.4
2019-01-30T09:48:45.849Z,19.38
2019-01-30T09:49:46.032Z,19.39
2019-01-30T09:50:46.206Z,19.4
2019-01-30T09:51:46.122Z,19.39
2019-01-30T09:52:45.716Z,19.41
2019-01-30T09:53:46.118Z,19.43
2019-01-30T09:54:46.362Z,19.41
2019-01-30T09:55:45.654Z,19.4
2019-01-30T09:56:46.200Z,19.4
2019-01-30T09:57:45.886Z,19.4
2019-01-30T09:58:46.047Z,19.42
2019-01-30T09:59:46.048Z,19.4
2019-01-30T10:00:45.827Z,19.42
2019-01-30T10:01:45.832Z,19.42
2019-01-30T10:02:46.179Z,19.41
2019-01-30T10:03:46.071Z,19.42
2019-01-30T10:04:46.109Z,19.41
2019-01-30T10:05:45.837Z,19.42
2019-01-30T10:06:45.720Z,19.42
2019-01-30T10:07:45.608Z,19.41
2019-01-30T10:08:45.953Z,19.42
2019-01-30T10:09:45.827Z,19.42
2019-01-30T10:10:45.892Z,19.41
2019-01-30T10:11:45.997Z,19.4
2019-01-30T10:12:45.820Z,19.42
2019-01-30T10:13:45.802Z,19.41
2019-01-30T10:14:46.055Z,19.43
2019-01-30T10:15:45.825Z,19.42
2019-01-30T10:16:45.933Z,19.41
2019-01-30T10:17:46.872Z,19.42
2019-01-30T10:18:46.155Z,19.42
2019-01-30T10:19:45.819Z,19.4
2019-01-30T10:20:45.568Z,19.42
2019-01-30T10:21:45.781Z,19.41
2019-01-30T10:22:46.739Z,19.41
2019-01-30T10:23:45.791Z,19.41
2019-01-30T10:24:46.135Z,19.42
2019-01-30T10:25:45.717Z,19.43
2019-01-30T10:26:45.846Z,19.4
2019-01-30T10:27:45.829Z,19.4
2019-01-30T10:28:45.542Z,19.42
2019-01-30T10:29:46.073Z,19.43
2019-01-30T10:30:45.882Z,19.43
2019-01-30T10:31:45.845Z,19.42
2019-01-30T10:32:45.994Z,19.42
2019-01-30T10:33:47.102Z,19.42
2019-01-30T10:34:45.737Z,19.42
2019-01-30T10:35:46.174Z,19.42
2019-01-30T10:36:46.413Z,19.43
2019-01-30T10:37:45.930Z,19.41
2019-01-30T10:38:45.878Z,19.42
2019-01-30T10:39:45.908Z,19.44
2019-01-30T10:40:47.671Z,19.4
2019-01-30T10:41:45.997Z,19.44
2019-01-30T10:42:45.823Z,19.44
2019-01-30T10:43:45.730Z,19.46
2019-01-30T10:44:46.249Z,19.45
2019-01-30T10:45:45.643Z,19.46
2019-01-30T10:46:45.828Z,19.48
2019-01-30T10:47:45.828Z,19.45
2019-01-30T10:48:46.810Z,19.45
2019-01-30T10:49:45.777Z,19.51
2019-01-30T10:50:46.232Z,19.48
2019-01-30T10:51:45.874Z,19.52
2019-01-30T10:52:45.987Z,19.51
2019-01-30T10:53:48.539Z,19.5
2019-01-30T10:54:45.807Z,19.52
2019-01-30T10:55:45.811Z,19.5
2019-01-30T10:56:46.142Z,19.5
2019-01-30T10:57:45.777Z,19.51
2019-01-30T10:58:46.329Z,19.5
2019-01-30T10:59:45.749Z,19.5
2019-01-30T11:00:45.998Z,19.51
2019-01-30T11:01:46.137Z,19.51
2019-01-30T11:02:46.783Z,19.5
2019-01-30T11:03:45.812Z,19.48
2019-01-30T11:04:45.805Z,19.51
2019-01-30T11:05:45.940Z,19.48
2019-01-30T11:06:45.824Z,19.5
2019-01-30T11:07:45.690Z,19.48
2019-01-30T11:08:45.739Z,19.51
2019-01-30T11:09:45.720Z,19.51
2019-01-30T11:10:45.923Z,19.51
2019-01-30T11:11:45.759Z,19.51
2019-01-30T11:12:46.032Z,19.52
2019-01-30T11:13:45.874Z,19.51
2019-01-30T11:14:45.776Z,19.52
2019-01-30T11:15:46.141Z,19.5
2019-01-30T11:16:45.573Z,19.52
2019-01-30T11:17:45.751Z,19.5
2019-01-30T11:18:46.309Z,19.5
2019-01-30T11:19:47.603Z,19.52
2019-01-30T11:20:46.942Z,19.54
2019-01-30T11:21:45.830Z,19.54
2019-01-30T11:22:45.768Z,19.56
2019-01-30T11:23:45.788Z,19.55
2019-01-30T11:24:46.766Z,19.57
2019-01-30T11:25:45.986Z,19.59
2019-01-30T11:26:45.970Z,19.57
2019-01-30T11:27:46.469Z,19.59
2019-01-30T11:28:45.786Z,19.57
2019-01-30T11:29:46.183Z,19.61
2019-01-30T11:30:45.738Z,19.59
2019-01-30T11:31:45.898Z,19.59
2019-01-30T11:32:45.909Z,19.59
2019-01-30T11:33:45.685Z,19.59
2019-01-30T11:34:46.544Z,19.6
2019-01-30T11:35:45.693Z,19.59
2019-01-30T11:36:46.106Z,19.59
2019-01-30T11:37:46.666Z,19.56
2019-01-30T11:38:46.252Z,19.58
2019-01-30T11:39:45.817Z,19.58
2019-01-30T11:40:46.072Z,19.59
2019-01-30T11:41:46.282Z,19.57
2019-01-30T11:42:46.072Z,19.57
2019-01-30T11:43:46.388Z,19.57
2019-01-30T11:44:46.182Z,19.59
2019-01-30T11:45:45.984Z,19.58
2019-01-30T11:46:46.308Z,19.59
2019-01-30T11:47:46.112Z,19.58
2019-01-30T11:48:56.961Z,19.59
2019-01-30T11:49:46.113Z,19.6
2019-01-30T11:50:45.701Z,19.59
2019-01-30T11:51:45.711Z,19.58
2019-01-30T11:52:45.742Z,19.58
2019-01-30T11:53:45.879Z,19.59
2019-01-30T11:54:45.949Z,19.6
2019-01-30T11:55:45.789Z,19.58
2019-01-30T11:56:45.752Z,19.59
2019-01-30T11:57:46.597Z,19.59
2019-01-30T11:58:45.779Z,19.59
2019-01-30T11:59:45.540Z,19.61
2019-01-30T12:00:46.303Z,19.61
2019-01-30T12:01:46.054Z,19.62
2019-01-30T12:02:48.828Z,19.61
2019-01-30T12:03:45.692Z,19.62
2019-01-30T12:04:45.898Z,19.63
2019-01-30T12:05:45.948Z,19.63
2019-01-30T12:06:46.003Z,19.65
2019-01-30T12:07:45.911Z,19.63
2019-01-30T12:08:45.694Z,19.63
2019-01-30T12:09:45.710Z,19.63
2019-01-30T12:10:45.933Z,19.65
2019-01-30T12:11:46.617Z,19.65
2019-01-30T12:12:46.092Z,19.67
2019-01-30T12:13:45.763Z,19.67
2019-01-30T12:14:45.924Z,19.66
2019-01-30T12:15:45.851Z,19.67
2019-01-30T12:16:46.235Z,19.67
2019-01-30T12:17:46.726Z,19.67
2019-01-30T12:18:45.970Z,19.69
2019-01-30T12:19:46.010Z,19.69
2019-01-30T12:20:45.938Z,19.68
2019-01-30T12:21:45.858Z,19.69
2019-01-30T12:22:45.915Z,19.66
2019-01-30T12:23:45.866Z,19.69
2019-01-30T12:24:45.966Z,19.68
2019-01-30T12:25:45.894Z,19.68
2019-01-30T12:26:45.823Z,19.67
2019-01-30T12:27:46.013Z,19.66
2019-01-30T12:28:45.659Z,19.65
2019-01-30T12:29:45.825Z,19.62
2019-01-30T12:30:46.231Z,19.63
2019-01-30T12:31:45.909Z,19.61
2019-01-30T12:32:45.854Z,19.62
2019-01-30T12:33:46.041Z,19.6
2019-01-30T12:34:45.756Z,19.63
2019-01-30T12:35:46.131Z,19.63
2019-01-30T12:36:45.568Z,19.65
2019-01-30T12:37:45.877Z,19.62
2019-01-30T12:38:45.847Z,19.63
2019-01-30T12:39:45.868Z,19.66
2019-01-30T12:40:45.846Z,19.65
2019-01-30T12:41:45.809Z,19.67
2019-01-30T12:42:45.909Z,19.67
2019-01-30T12:43:45.794Z,19.65
2019-01-30T12:44:45.737Z,19.68
2019-01-30T12:45:46.062Z,19.67
2019-01-30T12:46:45.787Z,19.68
2019-01-30T12:47:45.758Z,19.7
2019-01-30T12:48:45.718Z,19.7
2019-01-30T12:49:45.662Z,19.7
2019-01-30T12:50:45.872Z,19.71
2019-01-30T12:51:46.090Z,19.71
2019-01-30T12:52:45.811Z,19.72
2019-01-30T12:53:45.869Z,19.71
2019-01-30T12:54:46.034Z,19.74
2019-01-30T12:55:45.884Z,19.73
2019-01-30T12:56:45.667Z,19.73